createdAt,value
2022-08-10T00:01:52.091Z,99386.69
2022-08-10T00:04:24.011Z,99385.28
2022-08-10T00:06:53.831Z,99390.06
2022-08-10T00:09:22.294Z,99378.69
2022-08-10T00:11:49.932Z,99378.69
2022-08-10T00:14:18.496Z,99383.25
2022-08-10T00:16:46.074Z,99377.84
2022-08-10T00:19:16.692Z,99379.50
2022-08-10T00:21:46.442Z,99375.16
2022-08-10T00:24:14.474Z,99375.97
2022-08-10T00:27:52.819Z,99377.84
2022-08-10T00:29:30.461Z,99377.25
2022-08-10T00:31:59.471Z,99377.25
2022-08-10T00:34:28.973Z,99383.66
2022-08-10T00:36:57.702Z,99379.94
2022-08-10T00:39:26.496Z,99378.28
2022-08-10T00:42:01.863Z,99371.25
2022-08-10T00:44:47.706Z,99381.22
2022-08-10T00:47:36.333Z,99379.34
2022-08-10T00:50:04.745Z,99380.38
2022-08-10T00:52:35.397Z,99374.38
2022-08-10T00:55:05.376Z,99384.53
2022-08-10T00:57:34.379Z,99384.31
2022-08-10T01:00:02.870Z,99384.13
2022-08-10T01:02:32.310Z,99376.03
2022-08-10T01:05:04.470Z,99371.69
2022-08-10T01:07:53.528Z,99373.34
2022-08-10T01:10:42.530Z,99374.38
2022-08-10T01:13:22.240Z,99370.88
2022-08-10T01:15:56.677Z,99382.44
2022-08-10T01:18:37.556Z,99378.13
2022-08-10T01:21:05.550Z,99373.78
2022-08-10T01:23:57.837Z,99374.81
2022-08-10T01:26:49.589Z,99372.94
2022-08-10T01:29:26.014Z,99380.22
2022-08-10T01:31:57.928Z,99373.19
2022-08-10T01:34:34.061Z,99375.88
2022-08-10T01:37:12.037Z,99372.59
2022-08-10T01:39:43.629Z,99372.59
2022-08-10T01:42:14.690Z,99373.63
2022-08-10T01:44:53.196Z,99370.09
2022-08-10T01:47:43.842Z,99370.09
2022-08-10T01:50:22.478Z,99374.69
2022-08-10T01:52:53.107Z,99367.63
2022-08-10T01:55:21.721Z,99363.91
2022-08-10T01:57:50.200Z,99367.63
2022-08-10T02:00:18.941Z,99366.00
2022-08-10T02:02:47.317Z,99370.53
2022-08-10T02:05:16.381Z,99368.91
2022-08-10T02:07:46.832Z,99373.47
2022-08-10T02:10:19.169Z,99368.06
2022-08-10T02:12:47.650Z,99375.53
2022-08-10T02:15:19.252Z,99369.09
2022-08-10T02:17:57.799Z,99357.72
2022-08-10T02:20:32.260Z,99366.88
2022-08-10T02:23:04.601Z,99368.50
2022-08-10T02:25:42.642Z,99371.44
2022-08-10T02:28:27.200Z,99377.03
2022-08-10T02:31:11.912Z,99368.94
2022-08-10T02:33:56.384Z,99374.31
2022-08-10T02:36:32.911Z,99370.81
2022-08-10T02:39:01.937Z,99372.66
2022-08-10T02:45:09.881Z,99381.78
2022-08-10T02:45:21.967Z,99384.47
2022-08-10T02:47:58.563Z,99385.53
2022-08-10T02:50:32.607Z,99391.94
2022-08-10T02:52:59.979Z,99391.13
2022-08-10T02:55:42.824Z,99399.22
2022-08-10T02:58:26.065Z,99394.03
2022-08-10T03:00:56.398Z,99392.41
2022-08-10T03:03:30.766Z,99397.78
2022-08-10T03:06:05.542Z,99397.16
2022-08-10T03:08:39.600Z,99394.25
2022-08-10T03:11:10.173Z,99395.94
2022-08-10T03:13:39.393Z,99394.28
2022-08-10T03:16:08.689Z,99396.97
2022-08-10T03:18:37.344Z,99398.84
2022-08-10T03:21:08.868Z,99406.31
2022-08-10T03:23:41.614Z,99402.81
2022-08-10T03:26:09.745Z,99409.81
2022-08-10T03:28:37.537Z,99410.06
2022-08-10T03:31:05.401Z,99404.69
2022-08-10T03:33:35.398Z,99403.00
2022-08-10T03:36:44.089Z,99410.25
2022-08-10T03:38:54.231Z,99411.31
2022-08-10T03:41:35.579Z,99409.44
2022-08-10T03:44:06.731Z,99418.34
2022-08-10T03:46:37.461Z,99419.59
2022-08-10T03:49:07.005Z,99413.41
2022-08-10T03:51:35.537Z,99411.72
2022-08-10T03:54:07.359Z,99411.72
2022-08-10T03:56:37.516Z,99416.50
2022-08-10T03:59:07.840Z,99420.00
2022-08-10T04:02:44.075Z,99414.63
2022-08-10T04:04:25.425Z,99420.88
2022-08-10T04:06:56.652Z,99420.88
2022-08-10T04:09:42.859Z,99419.19
2022-08-10T04:12:16.483Z,99423.56
2022-08-10T04:14:50.750Z,99424.56
2022-08-10T04:18:03.325Z,99425.41
2022-08-10T04:20:35.009Z,99426.25
2022-08-10T04:23:09.642Z,99421.88
2022-08-10T04:25:39.454Z,99424.16
2022-08-10T04:28:08.860Z,99424.16
2022-08-10T04:30:38.297Z,99419.81
2022-08-10T04:33:08.135Z,99424.16
2022-08-10T04:35:37.052Z,99431.19
2022-08-10T04:38:05.658Z,99434.03
2022-08-10T04:40:33.325Z,99430.72
2022-08-10T04:43:12.223Z,99436.66
2022-08-10T04:45:48.362Z,99439.53
2022-08-10T04:48:43.482Z,99440.13
2022-08-10T04:51:18.142Z,99431.81
2022-08-10T04:54:04.481Z,99439.59
2022-08-10T04:56:36.840Z,99439.34
2022-08-10T04:59:06.126Z,99446.53
2022-08-10T05:02:21.639Z,99444.44
2022-08-10T05:04:35.811Z,99448.38
2022-08-10T05:07:09.234Z,99449.00
2022-08-10T05:10:01.735Z,99456.47
2022-08-10T05:12:29.462Z,99453.13
2022-08-10T05:14:57.188Z,99459.38
2022-08-10T05:17:25.763Z,99459.00
2022-08-10T05:20:03.102Z,99469.41
2022-08-10T05:22:44.614Z,99455.75
2022-08-10T05:25:17.937Z,99454.72
2022-08-10T05:27:47.823Z,99462.78
2022-08-10T05:30:18.528Z,99462.78
2022-08-10T05:32:57.354Z,99462.59
2022-08-10T05:35:52.403Z,99455.31
2022-08-10T05:38:18.097Z,99460.50
2022-08-10T05:40:47.863Z,99466.97
2022-08-10T05:43:18.052Z,99460.75
2022-08-10T05:46:18.350Z,99465.28
2022-08-10T05:48:54.686Z,99454.97
2022-08-10T05:51:27.388Z,99470.09
2022-08-10T05:54:03.569Z,99463.25
2022-08-10T05:56:56.016Z,99464.09
2022-08-10T06:00:33.639Z,99467.22
2022-08-10T06:02:35.017Z,99467.22
2022-08-10T06:05:16.578Z,99463.69
2022-08-10T06:07:59.537Z,99463.28
2022-08-10T06:10:32.607Z,99463.53
2022-08-10T06:13:26.936Z,99463.94
2022-08-10T06:16:10.475Z,99466.47
2022-08-10T06:18:38.317Z,99463.78
2022-08-10T06:21:06.797Z,99467.91
2022-08-10T06:23:36.087Z,99474.94
2022-08-10T06:26:12.027Z,99471.22
2022-08-10T06:28:52.979Z,99478.22
2022-08-10T06:31:48.433Z,99489.44
2022-08-10T06:34:30.559Z,99488.22
2022-08-10T06:37:01.673Z,99477.44
2022-08-10T06:39:34.134Z,99473.28
2022-08-10T06:42:18.314Z,99484.06
2022-08-10T06:44:52.617Z,99474.94
2022-08-10T06:47:24.162Z,99470.16
2022-08-10T06:49:59.837Z,99468.50
2022-08-10T06:52:32.933Z,99478.00
2022-08-10T06:55:05.109Z,99466.44
2022-08-10T06:57:37.451Z,99467.47
2022-08-10T07:00:06.065Z,99463.75
2022-08-10T07:02:41.480Z,99475.31
2022-08-10T07:05:15.061Z,99470.75
2022-08-10T07:07:46.005Z,99460.84
2022-08-10T07:10:18.646Z,99469.72
2022-08-10T07:12:48.541Z,99468.69
2022-08-10T07:15:18.244Z,99470.75
2022-08-10T07:17:46.780Z,99467.03
2022-08-10T07:20:18.927Z,99467.88
2022-08-10T07:23:08.154Z,99467.66
2022-08-10T07:25:42.261Z,99467.22
2022-08-10T07:28:10.972Z,99464.53
2022-08-10T07:30:39.503Z,99460.81
2022-08-10T07:33:08.092Z,99463.03
2022-08-10T07:35:43.351Z,99456.84
2022-08-10T07:38:38.620Z,99462.59
2022-08-10T07:41:08.614Z,99465.91
2022-08-10T07:43:40.098Z,99461.56
2022-08-10T07:46:12.248Z,99461.38
2022-08-10T07:48:50.981Z,99469.03
2022-08-10T07:51:19.893Z,99469.03
2022-08-10T07:53:54.298Z,99467.41
2022-08-10T07:56:47.847Z,99468.63
2022-08-10T07:59:31.685Z,99471.13
2022-08-10T08:02:02.193Z,99466.56
2022-08-10T08:04:32.126Z,99470.69
2022-08-10T08:07:03.930Z,99464.66
2022-08-10T08:09:33.600Z,99466.75
2022-08-10T08:12:02.461Z,99461.97
2022-08-10T08:14:30.305Z,99461.13
2022-08-10T08:16:59.706Z,99462.19
2022-08-10T08:19:37.046Z,99456.19
2022-08-10T08:24:07.232Z,99460.16
2022-08-10T08:24:58.983Z,99459.75
2022-08-10T08:27:28.880Z,99454.38
2022-08-10T08:29:56.401Z,99446.28
2022-08-10T08:32:27.393Z,99450.41
2022-08-10T08:35:17.148Z,99446.25
2022-08-10T08:38:34.500Z,99445.41
2022-08-10T08:40:38.854Z,99452.88
2022-08-10T08:43:09.353Z,99447.28
2022-08-10T08:46:02.216Z,99446.03
2022-08-10T08:48:44.476Z,99448.28
2022-08-10T08:52:07.272Z,99447.47
2022-08-10T08:54:50.881Z,99441.25
2022-08-10T08:57:22.956Z,99437.09
2022-08-10T09:00:13.445Z,99440.38
2022-08-10T09:03:02.760Z,99448.00
2022-08-10T09:05:58.633Z,99445.94
2022-08-10T09:09:02.464Z,99444.28
2022-08-10T09:11:52.623Z,99451.16
2022-08-10T09:14:37.185Z,99451.56
2022-08-10T09:17:34.136Z,99455.75
2022-08-10T09:20:09.949Z,99446.63
2022-08-10T09:22:40.233Z,99447.25
2022-08-10T09:25:31.249Z,99448.28
2022-08-10T09:28:06.837Z,99444.91
2022-08-10T09:31:18.887Z,99446.59
2022-08-10T09:36:20.910Z,99443.69
2022-08-10T09:37:40.048Z,99447.81
2022-08-10T09:40:59.454Z,99444.00
2022-08-10T09:43:50.602Z,99440.31
2022-08-10T09:46:52.229Z,99436.56
2022-08-10T09:49:25.033Z,99434.25
2022-08-10T09:52:24.847Z,99439.44
2022-08-10T09:55:07.753Z,99429.84
2022-08-10T09:58:06.198Z,99425.53
2022-08-10T10:00:44.461Z,99420.59
2022-08-10T10:03:42.033Z,99418.91
2022-08-10T10:06:26.839Z,99420.41
2022-08-10T10:09:11.008Z,99419.13
2022-08-10T10:11:42.070Z,99415.84
2022-08-10T10:15:09.827Z,99418.78
2022-08-10T10:17:57.557Z,99422.31
2022-08-10T10:20:37.014Z,99413.00
2022-08-10T10:23:07.217Z,99406.00
2022-08-10T10:25:51.444Z,99403.06
2022-08-10T10:31:54.804Z,99407.16
2022-08-10T10:34:48.037Z,99400.72
2022-08-10T10:37:17.947Z,99396.94
2022-08-10T10:39:53.753Z,99397.97
2022-08-10T10:42:45.237Z,99394.25
2022-08-10T10:45:26.141Z,99402.56
2022-08-10T10:48:09.489Z,99390.06
2022-08-10T10:50:58.894Z,99389.63
2022-08-10T10:53:52.645Z,99382.97
2022-08-10T10:56:24.193Z,99389.63
2022-08-10T10:59:15.322Z,99385.25
2022-08-10T11:02:16.603Z,99386.13
2022-08-10T11:05:24.242Z,99381.69
2022-08-10T11:08:15.861Z,99376.16
2022-08-10T11:10:56.431Z,99384.25
2022-08-10T11:14:25.832Z,99373.06
2022-08-10T11:16:35.557Z,99379.28
2022-08-10T11:20:01.951Z,99374.50
2022-08-10T11:22:28.977Z,99377.72
2022-08-10T11:25:25.335Z,99378.97
2022-08-10T11:28:11.584Z,99375.00
2022-08-10T11:30:56.868Z,99375.63
2022-08-10T11:33:42.748Z,99367.91
2022-08-10T11:36:27.176Z,99366.00
2022-08-10T11:39:14.485Z,99364.94
2022-08-10T11:42:09.714Z,99363.44
2022-08-10T11:44:57.330Z,99365.25
2022-08-10T11:47:50.610Z,99358.38
2022-08-10T11:50:28.516Z,99358.38
2022-08-10T11:53:14.287Z,99359.19
2022-08-10T11:55:49.294Z,99365.38
2022-08-10T11:58:36.135Z,99369.16
2022-08-10T12:01:06.723Z,99370.78
2022-08-10T12:03:37.667Z,99367.47
2022-08-10T12:06:08.511Z,99358.78
2022-08-10T12:10:05.757Z,99351.31
2022-08-10T12:11:29.092Z,99343.63
2022-08-10T12:14:21.361Z,99350.00
2022-08-10T12:17:02.109Z,99347.44
2022-08-10T12:20:16.154Z,99339.94
2022-08-10T12:23:05.474Z,99338.28
2022-08-10T12:25:54.982Z,99341.59
2022-08-10T12:28:50.881Z,99334.56
2022-08-10T12:31:58.029Z,99332.91
2022-08-10T12:34:46.348Z,99316.72
2022-08-10T12:38:01.481Z,99321.69
2022-08-10T12:40:36.197Z,99313.59
2022-08-10T12:44:07.519Z,99317.50
2022-08-10T12:46:28.693Z,99316.66
2022-08-10T12:48:59.147Z,99312.72
2022-08-10T12:51:30.409Z,99317.63
2022-08-10T12:54:09.227Z,99306.38
2022-08-10T12:56:48.616Z,99304.88
2022-08-10T12:59:18.659Z,99297.88
2022-08-10T13:02:06.551Z,99288.72
2022-08-10T13:04:43.273Z,99289.78
2022-08-10T13:08:24.644Z,99290.38
2022-08-10T13:10:07.340Z,99290.75
2022-08-10T13:12:41.329Z,99291.34
2022-08-10T13:15:49.870Z,99280.34
2022-08-10T13:18:18.106Z,99293.38
2022-08-10T13:20:54.923Z,99292.53
2022-08-10T13:23:27.491Z,99285.28
2022-08-10T13:25:58.198Z,99287.75
2022-08-10T13:28:39.916Z,99285.41
2022-08-10T13:31:16.386Z,99282.72
2022-08-10T13:34:40.412Z,99273.56
2022-08-10T13:36:43.603Z,99280.63
2022-08-10T13:39:13.021Z,99266.06
2022-08-10T13:41:44.268Z,99270.19
2022-08-10T13:44:17.559Z,99260.25
2022-08-10T13:46:51.269Z,99266.66
2022-08-10T13:49:21.654Z,99264.44
2022-08-10T13:51:54.278Z,99258.69
2022-08-10T13:54:39.124Z,99267.47
2022-08-10T13:57:07.499Z,99266.50
2022-08-10T14:00:35.011Z,99269.19
2022-08-10T14:02:34.768Z,99266.72
2022-08-10T14:05:03.275Z,99265.03
2022-08-10T14:07:32.445Z,99254.25
2022-08-10T14:10:08.941Z,99258.03
2022-08-10T14:12:39.727Z,99255.94
2022-08-10T14:15:12.042Z,99247.25
2022-08-10T14:17:44.751Z,99240.78
2022-08-10T14:20:19.311Z,99245.78
2022-08-10T14:22:49.713Z,99241.38
2022-08-10T14:25:17.433Z,99234.97
2022-08-10T14:28:02.301Z,99251.75
2022-08-10T14:30:33.420Z,99246.78
2022-08-10T14:33:04.508Z,99247.84
2022-08-10T14:36:18.938Z,99250.53
2022-08-10T14:38:33.288Z,99241.84
2022-08-10T14:41:03.881Z,99243.13
2022-08-10T14:43:42.212Z,99251.44
2022-08-10T14:46:17.806Z,99249.34
2022-08-10T14:48:48.409Z,99244.75
2022-08-10T14:51:19.640Z,99246.06
2022-08-10T14:53:54.367Z,99248.84
2022-08-10T14:56:32.299Z,99249.53
2022-08-10T14:59:06.869Z,99239.09
2022-08-10T15:02:00.450Z,99240.53
2022-08-10T15:04:32.739Z,99234.56
2022-08-10T15:07:11.850Z,99233.47
2022-08-10T15:10:01.425Z,99231.25
2022-08-10T15:12:34.397Z,99229.75
2022-08-10T15:15:05.534Z,99230.56
2022-08-10T15:17:37.248Z,99227.88
2022-08-10T15:20:20.779Z,99227.06
2022-08-10T15:22:54.286Z,99228.69
2022-08-10T15:25:26.264Z,99230.78
2022-08-10T15:28:06.363Z,99228.09
2022-08-10T15:30:50.406Z,99230.78
2022-08-10T15:34:02.074Z,99226.47
2022-08-10T15:37:47.057Z,99221.06
2022-08-10T15:40:25.525Z,99224.81
2022-08-10T15:42:38.184Z,99223.38
2022-08-10T15:45:06.973Z,99218.81
2022-08-10T15:47:45.672Z,99223.38
2022-08-10T15:50:21.907Z,99220.69
2022-08-10T15:53:01.276Z,99219.72
2022-08-10T15:55:43.191Z,99216.59
2022-08-10T15:58:39.875Z,99222.56
2022-08-10T16:02:14.285Z,99223.63
2022-08-10T16:04:17.751Z,99223.00
2022-08-10T16:07:10.607Z,99225.97
2022-08-10T16:10:23.482Z,99221.81
2022-08-10T16:12:59.490Z,99214.81
2022-08-10T16:15:31.605Z,99219.97
2022-08-10T16:18:07.451Z,99219.72
2022-08-10T16:20:53.266Z,99221.97
2022-08-10T16:23:38.305Z,99215.53
2022-08-10T16:26:15.650Z,99220.91
2022-08-10T16:28:57.740Z,99219.50
2022-08-10T16:31:27.653Z,99216.44
2022-08-10T16:33:59.214Z,99221.81
2022-08-10T16:37:02.905Z,99225.59
2022-08-10T16:39:57.986Z,99223.09
2022-08-10T16:42:29.191Z,99220.19
2022-08-10T16:45:11.078Z,99220.19
2022-08-10T16:47:50.714Z,99211.03
2022-08-10T16:50:42.262Z,99214.34
2022-08-10T16:53:14.491Z,99222.41
2022-08-10T16:55:50.468Z,99212.72
2022-08-10T16:58:25.308Z,99220.19
2022-08-10T17:01:00.763Z,99218.56
2022-08-10T17:04:06.775Z,99224.53
2022-08-10T17:06:35.892Z,99223.25
2022-08-10T17:09:06.265Z,99216.81
2022-08-10T17:11:37.524Z,99218.47
2022-08-10T17:14:08.592Z,99225.13
2022-08-10T17:16:40.694Z,99232.38
2022-08-10T17:19:14.379Z,99226.78
2022-08-10T17:21:51.899Z,99225.13
2022-08-10T17:24:24.248Z,99225.13
2022-08-10T17:26:52.962Z,99230.06
2022-08-10T17:29:58.614Z,99230.50
2022-08-10T17:32:28.158Z,99230.06
2022-08-10T17:34:59.210Z,99229.00
2022-08-10T17:37:31.357Z,99232.53
2022-08-10T17:40:05.529Z,99228.78
2022-08-10T17:42:35.319Z,99224.22
2022-08-10T17:45:04.480Z,99228.56
2022-08-10T17:47:33.445Z,99228.56
2022-08-10T17:50:01.519Z,99231.25
2022-08-10T17:52:33.189Z,99226.31
2022-08-10T17:55:05.732Z,99226.91
2022-08-10T17:57:37.671Z,99233.94
2022-08-10T18:00:11.129Z,99226.91
2022-08-10T18:02:43.042Z,99230.06
2022-08-10T18:05:12.543Z,99230.06
2022-08-10T18:07:51.834Z,99235.47
2022-08-10T18:10:21.478Z,99231.69
2022-08-10T18:12:53.788Z,99235.47
2022-08-10T18:15:27.465Z,99240.84
2022-08-10T18:18:03.812Z,99239.19
2022-08-10T18:20:36.907Z,99244.56
2022-08-10T18:23:08.345Z,99248.34
2022-08-10T18:25:41.577Z,99249.38
2022-08-10T18:28:15.958Z,99241.28
2022-08-10T18:30:48.102Z,99249.38
2022-08-10T18:33:18.837Z,99253.72
2022-08-10T18:35:47.104Z,99251.03
2022-08-10T18:38:16.652Z,99251.25
2022-08-10T18:40:52.395Z,99260.16
2022-08-10T18:44:05.834Z,99262.03
2022-08-10T18:46:19.803Z,99257.44
2022-08-10T18:48:53.564Z,99265.53
2022-08-10T18:51:26.965Z,99261.81
2022-08-10T18:54:39.698Z,99259.09
2022-08-10T18:57:39.584Z,99254.53
2022-08-10T19:00:19.135Z,99263.44
2022-08-10T19:03:11.467Z,99257.81
2022-08-10T19:06:17.833Z,99257.22
2022-08-10T19:09:47.453Z,99265.53
2022-08-10T19:12:30.982Z,99266.59
2022-08-10T19:15:09.236Z,99264.94
2022-08-10T19:18:03.530Z,99272.44
2022-08-10T19:20:41.126Z,99274.56
2022-08-10T19:23:18.730Z,99268.91
2022-08-10T19:26:40.726Z,99265.41
2022-08-10T19:28:58.580Z,99278.88
2022-08-10T19:31:55.499Z,99276.19
2022-08-10T19:34:34.708Z,99276.19
2022-08-10T19:37:32.740Z,99276.19
2022-08-10T19:40:03.260Z,99277.00
2022-08-10T19:42:40.809Z,99272.66
2022-08-10T19:45:55.984Z,99282.84
2022-08-10T19:48:34.126Z,99286.34
2022-08-10T19:51:09.525Z,99277.47
2022-08-10T19:53:53.411Z,99277.47
2022-08-10T19:56:35.040Z,99282.47
2022-08-10T19:59:12.970Z,99280.38
2022-08-10T20:01:54.974Z,99275.19
2022-08-10T20:04:32.128Z,99272.75
2022-08-10T20:07:12.633Z,99279.19
2022-08-10T20:09:56.720Z,99275.66
2022-08-10T20:13:01.041Z,99277.53
2022-08-10T20:15:42.396Z,99272.38
2022-08-10T20:18:28.984Z,99275.28
2022-08-10T20:21:23.524Z,99265.56
2022-08-10T20:24:12.640Z,99269.28
2022-08-10T20:26:55.218Z,99269.75
2022-08-10T20:29:58.752Z,99273.50
2022-08-10T20:32:26.143Z,99264.84
2022-08-10T20:35:39.415Z,99273.13
2022-08-10T20:38:14.883Z,99274.41
2022-08-10T20:40:46.969Z,99267.34
2022-08-10T20:43:32.271Z,99268.41
2022-08-10T20:46:18.108Z,99266.53
2022-08-10T20:48:51.461Z,99271.94
2022-08-10T20:51:23.551Z,99268.41
2022-08-10T20:54:13.976Z,99273.22
2022-08-10T20:57:54.792Z,99271.53
2022-08-10T21:00:13.458Z,99269.91
2022-08-10T21:03:22.266Z,99272.59
2022-08-10T21:06:41.695Z,99269.91
2022-08-10T21:09:29.601Z,99274.91
2022-08-10T21:12:16.221Z,99273.28
2022-08-10T21:15:12.168Z,99274.31
2022-08-10T21:17:58.484Z,99269.78
2022-08-10T21:20:47.487Z,99270.00
2022-08-10T21:23:38.079Z,99273.72
2022-08-10T21:26:15.692Z,99271.03
2022-08-10T21:29:21.552Z,99262.13
2022-08-10T21:32:12.087Z,99264.81
2022-08-10T21:35:37.733Z,99258.03
2022-08-10T21:38:21.740Z,99262.34
2022-08-10T21:41:17.934Z,99271.28
2022-08-10T21:44:24.930Z,99265.88
2022-08-10T21:47:38.098Z,99263.41
2022-08-10T21:50:31.256Z,99256.34
2022-08-10T21:53:44.685Z,99254.50
2022-08-10T21:56:37.355Z,99255.13
2022-08-10T21:59:56.272Z,99252.41
2022-08-10T22:02:49.780Z,99251.81
2022-08-10T22:05:47.233Z,99253.88
2022-08-10T22:08:37.736Z,99253.88
2022-08-10T22:11:29.627Z,99256.56
2022-08-10T22:14:26.078Z,99250.38
2022-08-10T22:18:03.538Z,99249.53
2022-08-10T22:20:27.633Z,99263.00
2022-08-10T22:27:00.672Z,99241.44
2022-08-10T22:29:54.630Z,99243.31
2022-08-10T22:31:27.737Z,99249.53
2022-08-10T22:33:02.030Z,99233.38
2022-08-10T22:36:07.321Z,99236.06
2022-08-10T22:40:07.363Z,99238.75
2022-08-10T22:42:59.094Z,99244.13
2022-08-10T22:45:49.485Z,99234.44
2022-08-10T22:48:35.878Z,99228.22
2022-08-10T22:51:17.224Z,99229.03
2022-08-10T22:54:42.157Z,99228.22
2022-08-10T22:57:36.241Z,99221.19
2022-08-10T23:00:16.638Z,99224.09
2022-08-10T23:02:57.597Z,99227.84
2022-08-10T23:05:33.643Z,99220.59
2022-08-10T23:08:29.969Z,99232.41
2022-08-10T23:11:08.137Z,99221.84
2022-08-10T23:13:42.324Z,99224.56
2022-08-10T23:16:44.626Z,99226.22
2022-08-10T23:19:25.650Z,99223.94
2022-08-10T23:22:07.430Z,99225.00
2022-08-10T23:24:43.025Z,99220.88
2022-08-10T23:27:38.687Z,99228.38
2022-08-10T23:30:09.484Z,99227.09
2022-08-10T23:32:44.216Z,99226.50
2022-08-10T23:36:30.965Z,99227.31
2022-08-10T23:38:06.493Z,99222.16
2022-08-10T23:40:35.567Z,99218.44
2022-08-10T23:43:05.515Z,99217.81
2022-08-10T23:45:53.362Z,99219.47
2022-08-10T23:48:26.250Z,99216.75
2022-08-10T23:50:58.609Z,99217.81
2022-08-10T23:53:40.584Z,99209.75
2022-08-10T23:56:12.738Z,99208.09
2022-08-10T23:58:50.660Z,99213.47
